sensor_id;sensor_type;location;lat;lon;timestamp;P1;durP1;ratioP1;P2;durP2;ratioP2
58760;SDS011;44529;47.464;19.014;2022-11-04T00:04:12;30.45;;;19.15;;
58760;SDS011;44529;47.464;19.014;2022-11-04T00:07:16;34.10;;;19.73;;
58760;SDS011;44529;47.464;19.014;2022-11-04T00:10:37;29.73;;;18.52;;
58760;SDS011;44529;47.464;19.014;2022-11-04T00:13:57;29.63;;;19.23;;
58760;SDS011;44529;47.464;19.014;2022-11-04T00:17:00;30.12;;;19.12;;
58760;SDS011;44529;47.464;19.014;2022-11-04T00:20:23;34.45;;;20.20;;
58760;SDS011;44529;47.464;19.014;2022-11-04T00:23:43;33.92;;;20.37;;
58760;SDS011;44529;47.464;19.014;2022-11-04T00:27:19;34.53;;;19.45;;
58760;SDS011;44529;47.464;19.014;2022-11-04T00:30:41;30.17;;;18.45;;
58760;SDS011;44529;47.464;19.014;2022-11-04T00:33:43;29.80;;;18.48;;
58760;SDS011;44529;47.464;19.014;2022-11-04T00:36:45;31.60;;;17.95;;
58760;SDS011;44529;47.464;19.014;2022-11-04T00:39:47;30.65;;;18.85;;
58760;SDS011;44529;47.464;19.014;2022-11-04T00:42:49;28.25;;;18.33;;
58760;SDS011;44529;47.464;19.014;2022-11-04T00:45:52;31.17;;;18.27;;
58760;SDS011;44529;47.464;19.014;2022-11-04T00:48:54;29.12;;;18.67;;
58760;SDS011;44529;47.464;19.014;2022-11-04T00:51:57;28.00;;;18.17;;
58760;SDS011;44529;47.464;19.014;2022-11-04T00:54:59;27.55;;;18.20;;
58760;SDS011;44529;47.464;19.014;2022-11-04T00:58:01;32.90;;;18.25;;
58760;SDS011;44529;47.464;19.014;2022-11-04T01:01:11;29.37;;;18.25;;
58760;SDS011;44529;47.464;19.014;2022-11-04T01:04:18;31.80;;;18.62;;
58760;SDS011;44529;47.464;19.014;2022-11-04T01:07:20;31.95;;;19.17;;
58760;SDS011;44529;47.464;19.014;2022-11-04T01:10:23;31.10;;;19.05;;
58760;SDS011;44529;47.464;19.014;2022-11-04T01:13:25;29.08;;;17.87;;
58760;SDS011;44529;47.464;19.014;2022-11-04T01:16:27;31.77;;;17.95;;
58760;SDS011;44529;47.464;19.014;2022-11-04T01:19:30;29.25;;;18.90;;
58760;SDS011;44529;47.464;19.014;2022-11-04T01:22:32;30.00;;;18.75;;
58760;SDS011;44529;47.464;19.014;2022-11-04T01:25:38;29.33;;;18.42;;
58760;SDS011;44529;47.464;19.014;2022-11-04T01:28:41;28.55;;;18.25;;
58760;SDS011;44529;47.464;19.014;2022-11-04T01:31:44;30.95;;;18.65;;
58760;SDS011;44529;47.464;19.014;2022-11-04T01:34:46;33.65;;;19.33;;
58760;SDS011;44529;47.464;19.014;2022-11-04T01:37:49;30.25;;;18.30;;
58760;SDS011;44529;47.464;19.014;2022-11-04T01:40:51;32.58;;;20.65;;
58760;SDS011;44529;47.464;19.014;2022-11-04T01:43:54;33.72;;;19.42;;
58760;SDS011;44529;47.464;19.014;2022-11-04T01:46:58;30.67;;;19.45;;
58760;SDS011;44529;47.464;19.014;2022-11-04T01:50:06;36.88;;;20.70;;
58760;SDS011;44529;47.464;19.014;2022-11-04T01:53:10;35.03;;;20.10;;
58760;SDS011;44529;47.464;19.014;2022-11-04T01:56:17;36.25;;;20.62;;
58760;SDS011;44529;47.464;19.014;2022-11-04T01:59:23;30.60;;;19.95;;
58760;SDS011;44529;47.464;19.014;2022-11-04T02:02:29;33.10;;;20.25;;
58760;SDS011;44529;47.464;19.014;2022-11-04T02:05:32;37.90;;;21.02;;
58760;SDS011;44529;47.464;19.014;2022-11-04T02:08:34;38.72;;;19.60;;
58760;SDS011;44529;47.464;19.014;2022-11-04T02:11:36;33.15;;;20.23;;
58760;SDS011;44529;47.464;19.014;2022-11-04T02:14:57;39.17;;;21.73;;
58760;SDS011;44529;47.464;19.014;2022-11-04T02:28:11;36.40;;;21.08;;
58760;SDS011;44529;47.464;19.014;2022-11-04T02:31:30;42.47;;;22.33;;
58760;SDS011;44529;47.464;19.014;2022-11-04T02:35:01;35.78;;;22.37;;
58760;SDS011;44529;47.464;19.014;2022-11-04T02:44:58;37.00;;;21.80;;
58760;SDS011;44529;47.464;19.014;2022-11-04T02:51:38;36.85;;;22.33;;
58760;SDS011;44529;47.464;19.014;2022-11-04T02:54:47;35.83;;;21.20;;
58760;SDS011;44529;47.464;19.014;2022-11-04T02:57:54;33.22;;;20.85;;
58760;SDS011;44529;47.464;19.014;2022-11-04T03:00:58;38.00;;;22.40;;
58760;SDS011;44529;47.464;19.014;2022-11-04T03:04:06;37.53;;;21.37;;
58760;SDS011;44529;47.464;19.014;2022-11-04T03:07:14;35.80;;;21.33;;
58760;SDS011;44529;47.464;19.014;2022-11-04T03:10:21;35.78;;;20.52;;
58760;SDS011;44529;47.464;19.014;2022-11-04T03:13:34;36.80;;;22.27;;
58760;SDS011;44529;47.464;19.014;2022-11-04T03:19:51;34.85;;;22.23;;
58760;SDS011;44529;47.464;19.014;2022-11-04T03:22:56;36.33;;;20.95;;
58760;SDS011;44529;47.464;19.014;2022-11-04T03:26:06;37.13;;;21.50;;
58760;SDS011;44529;47.464;19.014;2022-11-04T03:29:21;35.80;;;21.30;;
58760;SDS011;44529;47.464;19.014;2022-11-04T03:35:51;39.00;;;20.95;;
58760;SDS011;44529;47.464;19.014;2022-11-04T03:38:53;36.28;;;20.92;;
58760;SDS011;44529;47.464;19.014;2022-11-04T03:41:56;37.65;;;21.85;;
58760;SDS011;44529;47.464;19.014;2022-11-04T03:45:02;38.03;;;21.67;;
58760;SDS011;44529;47.464;19.014;2022-11-04T03:48:05;38.95;;;22.55;;
58760;SDS011;44529;47.464;19.014;2022-11-04T03:51:07;37.75;;;22.58;;
58760;SDS011;44529;47.464;19.014;2022-11-04T03:54:10;42.58;;;22.90;;
58760;SDS011;44529;47.464;19.014;2022-11-04T03:57:16;39.63;;;23.15;;
58760;SDS011;44529;47.464;19.014;2022-11-04T04:00:21;40.78;;;22.87;;
58760;SDS011;44529;47.464;19.014;2022-11-04T04:03:28;41.17;;;23.40;;
58760;SDS011;44529;47.464;19.014;2022-11-04T04:06:36;38.00;;;22.98;;
58760;SDS011;44529;47.464;19.014;2022-11-04T04:09:41;39.08;;;23.05;;
58760;SDS011;44529;47.464;19.014;2022-11-04T04:16:34;37.13;;;22.87;;
58760;SDS011;44529;47.464;19.014;2022-11-04T04:19:45;38.47;;;24.20;;
58760;SDS011;44529;47.464;19.014;2022-11-04T04:22:55;41.22;;;23.92;;
58760;SDS011;44529;47.464;19.014;2022-11-04T04:26:02;39.30;;;24.33;;
58760;SDS011;44529;47.464;19.014;2022-11-04T04:29:26;43.17;;;24.77;;
58760;SDS011;44529;47.464;19.014;2022-11-04T04:32:31;44.55;;;25.23;;
58760;SDS011;44529;47.464;19.014;2022-11-04T04:35:43;42.30;;;24.58;;
58760;SDS011;44529;47.464;19.014;2022-11-04T04:38:50;38.90;;;24.67;;
58760;SDS011;44529;47.464;19.014;2022-11-04T04:42:11;39.17;;;24.92;;
58760;SDS011;44529;47.464;19.014;2022-11-04T04:45:32;42.88;;;25.10;;
58760;SDS011;44529;47.464;19.014;2022-11-04T04:48:37;42.62;;;24.98;;
58760;SDS011;44529;47.464;19.014;2022-11-04T04:51:46;45.72;;;25.45;;
58760;SDS011;44529;47.464;19.014;2022-11-04T04:54:48;42.83;;;25.15;;
58760;SDS011;44529;47.464;19.014;2022-11-04T04:57:51;43.75;;;24.83;;
58760;SDS011;44529;47.464;19.014;2022-11-04T05:00:53;42.28;;;24.90;;
58760;SDS011;44529;47.464;19.014;2022-11-04T05:03:55;43.22;;;26.02;;
58760;SDS011;44529;47.464;19.014;2022-11-04T05:06:58;49.97;;;27.30;;
58760;SDS011;44529;47.464;19.014;2022-11-04T05:10:00;47.50;;;26.42;;
58760;SDS011;44529;47.464;19.014;2022-11-04T05:13:02;47.85;;;27.35;;
58760;SDS011;44529;47.464;19.014;2022-11-04T05:16:23;44.28;;;26.12;;
58760;SDS011;44529;47.464;19.014;2022-11-04T05:19:25;49.50;;;28.33;;
58760;SDS011;44529;47.464;19.014;2022-11-04T05:22:27;43.45;;;26.12;;
58760;SDS011;44529;47.464;19.014;2022-11-04T05:25:30;48.87;;;26.62;;
58760;SDS011;44529;47.464;19.014;2022-11-04T05:28:32;43.97;;;25.65;;
58760;SDS011;44529;47.464;19.014;2022-11-04T05:31:34;47.25;;;26.83;;
58760;SDS011;44529;47.464;19.014;2022-11-04T05:34:37;50.10;;;27.60;;
58760;SDS011;44529;47.464;19.014;2022-11-04T05:37:39;46.13;;;27.80;;
58760;SDS011;44529;47.464;19.014;2022-11-04T05:40:41;47.45;;;28.33;;
58760;SDS011;44529;47.464;19.014;2022-11-04T05:43:43;45.88;;;28.38;;
58760;SDS011;44529;47.464;19.014;2022-11-04T05:46:45;48.87;;;28.85;;
58760;SDS011;44529;47.464;19.014;2022-11-04T05:49:48;49.08;;;29.12;;
58760;SDS011;44529;47.464;19.014;2022-11-04T05:52:50;53.13;;;29.42;;
58760;SDS011;44529;47.464;19.014;2022-11-04T05:55:52;51.75;;;31.08;;
58760;SDS011;44529;47.464;19.014;2022-11-04T05:58:54;49.42;;;29.25;;
58760;SDS011;44529;47.464;19.014;2022-11-04T06:01:57;48.20;;;29.58;;
58760;SDS011;44529;47.464;19.014;2022-11-04T06:04:59;54.42;;;31.83;;
58760;SDS011;44529;47.464;19.014;2022-11-04T06:08:01;53.00;;;32.10;;
58760;SDS011;44529;47.464;19.014;2022-11-04T06:11:04;51.78;;;31.75;;
58760;SDS011;44529;47.464;19.014;2022-11-04T06:14:06;53.63;;;33.17;;
58760;SDS011;44529;47.464;19.014;2022-11-04T06:17:12;59.25;;;34.42;;
58760;SDS011;44529;47.464;19.014;2022-11-04T06:20:16;61.00;;;35.08;;
58760;SDS011;44529;47.464;19.014;2022-11-04T06:23:18;58.17;;;34.20;;
58760;SDS011;44529;47.464;19.014;2022-11-04T06:26:20;61.65;;;35.47;;
58760;SDS011;44529;47.464;19.014;2022-11-04T06:29:29;60.38;;;35.20;;
58760;SDS011;44529;47.464;19.014;2022-11-04T06:32:31;55.90;;;33.33;;
58760;SDS011;44529;47.464;19.014;2022-11-04T06:35:34;54.45;;;30.60;;
58760;SDS011;44529;47.464;19.014;2022-11-04T06:38:36;57.70;;;33.30;;
58760;SDS011;44529;47.464;19.014;2022-11-04T06:41:39;55.15;;;31.90;;
58760;SDS011;44529;47.464;19.014;2022-11-04T06:44:44;55.95;;;33.53;;
58760;SDS011;44529;47.464;19.014;2022-11-04T06:47:46;57.55;;;31.60;;
58760;SDS011;44529;47.464;19.014;2022-11-04T06:50:48;56.60;;;33.53;;
58760;SDS011;44529;47.464;19.014;2022-11-04T06:53:51;59.33;;;33.40;;
58760;SDS011;44529;47.464;19.014;2022-11-04T06:56:53;59.40;;;32.85;;
58760;SDS011;44529;47.464;19.014;2022-11-04T06:59:55;58.75;;;32.67;;
58760;SDS011;44529;47.464;19.014;2022-11-04T07:02:57;60.03;;;32.75;;
58760;SDS011;44529;47.464;19.014;2022-11-04T07:06:04;58.80;;;31.65;;
58760;SDS011;44529;47.464;19.014;2022-11-04T07:09:08;48.65;;;29.90;;
58760;SDS011;44529;47.464;19.014;2022-11-04T07:12:13;54.28;;;32.45;;
58760;SDS011;44529;47.464;19.014;2022-11-04T07:15:15;53.05;;;29.08;;
58760;SDS011;44529;47.464;19.014;2022-11-04T07:18:18;53.10;;;30.08;;
58760;SDS011;44529;47.464;19.014;2022-11-04T07:21:20;54.40;;;30.12;;
58760;SDS011;44529;47.464;19.014;2022-11-04T07:24:23;48.70;;;29.90;;
58760;SDS011;44529;47.464;19.014;2022-11-04T07:27:25;54.60;;;28.65;;
58760;SDS011;44529;47.464;19.014;2022-11-04T07:30:28;49.80;;;29.10;;
58760;SDS011;44529;47.464;19.014;2022-11-04T07:33:30;55.33;;;29.90;;
58760;SDS011;44529;47.464;19.014;2022-11-04T07:36:34;53.25;;;30.90;;
58760;SDS011;44529;47.464;19.014;2022-11-04T07:39:36;52.53;;;29.98;;
58760;SDS011;44529;47.464;19.014;2022-11-04T07:42:39;52.72;;;30.70;;
58760;SDS011;44529;47.464;19.014;2022-11-04T07:45:42;55.45;;;31.35;;
58760;SDS011;44529;47.464;19.014;2022-11-04T07:48:44;51.20;;;31.27;;
58760;SDS011;44529;47.464;19.014;2022-11-04T07:51:46;49.72;;;29.15;;
58760;SDS011;44529;47.464;19.014;2022-11-04T07:54:49;53.75;;;29.90;;
58760;SDS011;44529;47.464;19.014;2022-11-04T07:57:53;49.10;;;28.65;;
58760;SDS011;44529;47.464;19.014;2022-11-04T08:01:06;51.15;;;28.98;;
58760;SDS011;44529;47.464;19.014;2022-11-04T08:04:10;47.53;;;28.30;;
58760;SDS011;44529;47.464;19.014;2022-11-04T08:07:12;51.25;;;30.45;;
58760;SDS011;44529;47.464;19.014;2022-11-04T08:10:15;53.47;;;31.65;;
58760;SDS011;44529;47.464;19.014;2022-11-04T08:13:17;50.10;;;30.83;;
58760;SDS011;44529;47.464;19.014;2022-11-04T08:16:20;48.95;;;30.08;;
58760;SDS011;44529;47.464;19.014;2022-11-04T08:19:24;52.00;;;31.87;;
58760;SDS011;44529;47.464;19.014;2022-11-04T08:22:26;54.72;;;33.00;;
58760;SDS011;44529;47.464;19.014;2022-11-04T08:25:34;51.80;;;30.58;;
58760;SDS011;44529;47.464;19.014;2022-11-04T08:28:36;56.25;;;32.90;;
58760;SDS011;44529;47.464;19.014;2022-11-04T08:31:39;55.28;;;33.28;;
58760;SDS011;44529;47.464;19.014;2022-11-04T08:34:43;50.45;;;31.33;;
58760;SDS011;44529;47.464;19.014;2022-11-04T08:37:45;52.67;;;32.00;;
58760;SDS011;44529;47.464;19.014;2022-11-04T08:40:48;48.72;;;30.05;;
58760;SDS011;44529;47.464;19.014;2022-11-04T08:43:50;51.10;;;30.48;;
58760;SDS011;44529;47.464;19.014;2022-11-04T08:46:53;50.83;;;30.73;;
58760;SDS011;44529;47.464;19.014;2022-11-04T08:49:55;46.58;;;29.40;;
58760;SDS011;44529;47.464;19.014;2022-11-04T08:52:58;49.75;;;30.52;;
58760;SDS011;44529;47.464;19.014;2022-11-04T08:56:07;48.25;;;29.17;;
58760;SDS011;44529;47.464;19.014;2022-11-04T08:59:12;60.97;;;31.10;;
58760;SDS011;44529;47.464;19.014;2022-11-04T09:02:15;51.92;;;31.15;;
58760;SDS011;44529;47.464;19.014;2022-11-04T09:05:18;51.80;;;29.85;;
58760;SDS011;44529;47.464;19.014;2022-11-04T09:08:20;50.15;;;31.10;;
58760;SDS011;44529;47.464;19.014;2022-11-04T09:11:22;56.53;;;29.73;;
58760;SDS011;44529;47.464;19.014;2022-11-04T09:14:25;47.88;;;29.50;;
58760;SDS011;44529;47.464;19.014;2022-11-04T09:17:27;48.15;;;30.90;;
58760;SDS011;44529;47.464;19.014;2022-11-04T09:20:29;47.92;;;30.15;;
58760;SDS011;44529;47.464;19.014;2022-11-04T09:23:32;48.35;;;29.52;;
58760;SDS011;44529;47.464;19.014;2022-11-04T09:26:34;54.03;;;29.87;;
58760;SDS011;44529;47.464;19.014;2022-11-04T09:29:37;50.40;;;29.35;;
58760;SDS011;44529;47.464;19.014;2022-11-04T09:32:39;48.50;;;30.45;;
58760;SDS011;44529;47.464;19.014;2022-11-04T09:35:41;46.17;;;29.85;;
58760;SDS011;44529;47.464;19.014;2022-11-04T09:38:44;48.20;;;29.25;;
58760;SDS011;44529;47.464;19.014;2022-11-04T09:41:51;46.63;;;29.52;;
58760;SDS011;44529;47.464;19.014;2022-11-04T09:45:11;51.22;;;29.80;;
58760;SDS011;44529;47.464;19.014;2022-11-04T09:48:26;49.88;;;29.50;;
58760;SDS011;44529;47.464;19.014;2022-11-04T09:51:33;47.88;;;30.98;;
58760;SDS011;44529;47.464;19.014;2022-11-04T09:55:05;45.78;;;30.58;;
58760;SDS011;44529;47.464;19.014;2022-11-04T09:58:14;51.22;;;32.72;;
58760;SDS011;44529;47.464;19.014;2022-11-04T10:01:25;48.55;;;30.83;;
58760;SDS011;44529;47.464;19.014;2022-11-04T10:04:47;53.22;;;30.65;;
58760;SDS011;44529;47.464;19.014;2022-11-04T10:14:48;53.30;;;32.58;;
58760;SDS011;44529;47.464;19.014;2022-11-04T10:25:14;55.08;;;35.72;;
58760;SDS011;44529;47.464;19.014;2022-11-04T10:28:27;56.20;;;33.92;;
58760;SDS011;44529;47.464;19.014;2022-11-04T10:31:40;50.70;;;33.65;;
58760;SDS011;44529;47.464;19.014;2022-11-04T10:35:01;50.63;;;33.35;;
58760;SDS011;44529;47.464;19.014;2022-11-04T10:41:48;55.40;;;33.50;;
58760;SDS011;44529;47.464;19.014;2022-11-04T10:44:55;48.58;;;31.77;;
58760;SDS011;44529;47.464;19.014;2022-11-04T10:48:01;46.45;;;30.27;;
58760;SDS011;44529;47.464;19.014;2022-11-04T10:51:12;49.05;;;30.70;;
58760;SDS011;44529;47.464;19.014;2022-11-04T10:54:23;45.28;;;29.98;;
58760;SDS011;44529;47.464;19.014;2022-11-04T10:57:27;45.95;;;31.37;;
58760;SDS011;44529;47.464;19.014;2022-11-04T11:03:37;47.38;;;32.00;;
58760;SDS011;44529;47.464;19.014;2022-11-04T11:06:40;51.17;;;32.22;;
58760;SDS011;44529;47.464;19.014;2022-11-04T11:12:58;50.53;;;33.47;;
58760;SDS011;44529;47.464;19.014;2022-11-04T11:16:20;48.33;;;31.60;;
58760;SDS011;44529;47.464;19.014;2022-11-04T11:19:27;52.60;;;32.55;;
58760;SDS011;44529;47.464;19.014;2022-11-04T11:22:42;51.37;;;34.20;;
58760;SDS011;44529;47.464;19.014;2022-11-04T11:25:48;54.03;;;35.10;;
58760;SDS011;44529;47.464;19.014;2022-11-04T11:28:52;50.53;;;33.80;;
58760;SDS011;44529;47.464;19.014;2022-11-04T11:35:13;56.28;;;34.67;;
58760;SDS011;44529;47.464;19.014;2022-11-04T11:38:21;53.85;;;33.85;;
58760;SDS011;44529;47.464;19.014;2022-11-04T11:41:26;52.78;;;34.47;;
58760;SDS011;44529;47.464;19.014;2022-11-04T11:44:33;51.05;;;34.65;;
58760;SDS011;44529;47.464;19.014;2022-11-04T11:47:48;54.03;;;34.88;;
58760;SDS011;44529;47.464;19.014;2022-11-04T11:50:55;48.87;;;34.28;;
58760;SDS011;44529;47.464;19.014;2022-11-04T11:57:35;51.97;;;34.65;;
58760;SDS011;44529;47.464;19.014;2022-11-04T12:00:53;54.22;;;35.88;;
58760;SDS011;44529;47.464;19.014;2022-11-04T12:04:11;53.13;;;35.85;;
58760;SDS011;44529;47.464;19.014;2022-11-04T12:07:39;52.05;;;35.00;;
58760;SDS011;44529;47.464;19.014;2022-11-04T12:11:14;52.20;;;35.50;;
58760;SDS011;44529;47.464;19.014;2022-11-04T12:21:24;57.15;;;35.80;;
58760;SDS011;44529;47.464;19.014;2022-11-04T12:28:08;57.47;;;36.30;;
58760;SDS011;44529;47.464;19.014;2022-11-04T12:44:52;56.65;;;36.45;;
58760;SDS011;44529;47.464;19.014;2022-11-04T12:48:08;57.62;;;36.55;;
58760;SDS011;44529;47.464;19.014;2022-11-04T12:51:19;55.10;;;37.42;;
58760;SDS011;44529;47.464;19.014;2022-11-04T12:54:34;55.95;;;36.40;;
58760;SDS011;44529;47.464;19.014;2022-11-04T13:04:21;54.63;;;36.28;;
58760;SDS011;44529;47.464;19.014;2022-11-04T13:07:30;53.72;;;35.72;;
58760;SDS011;44529;47.464;19.014;2022-11-04T13:10:45;58.80;;;36.72;;
58760;SDS011;44529;47.464;19.014;2022-11-04T13:14:01;55.17;;;36.85;;
58760;SDS011;44529;47.464;19.014;2022-11-04T13:17:09;55.95;;;37.40;;
58760;SDS011;44529;47.464;19.014;2022-11-04T13:23:47;60.72;;;36.22;;
58760;SDS011;44529;47.464;19.014;2022-11-04T13:27:13;56.85;;;36.47;;
58760;SDS011;44529;47.464;19.014;2022-11-04T13:36:40;60.70;;;34.88;;
58760;SDS011;44529;47.464;19.014;2022-11-04T13:40:02;53.45;;;35.22;;
58760;SDS011;44529;47.464;19.014;2022-11-04T13:43:17;56.13;;;35.35;;
58760;SDS011;44529;47.464;19.014;2022-11-04T13:46:45;58.42;;;35.40;;
58760;SDS011;44529;47.464;19.014;2022-11-04T13:49:51;55.17;;;36.53;;
58760;SDS011;44529;47.464;19.014;2022-11-04T13:52:56;57.92;;;36.00;;
58760;SDS011;44529;47.464;19.014;2022-11-04T13:55:59;56.65;;;36.58;;
58760;SDS011;44529;47.464;19.014;2022-11-04T13:59:22;55.38;;;36.20;;
58760;SDS011;44529;47.464;19.014;2022-11-04T14:02:35;57.95;;;34.42;;
58760;SDS011;44529;47.464;19.014;2022-11-04T14:09:23;55.03;;;36.33;;
58760;SDS011;44529;47.464;19.014;2022-11-04T14:12:24;54.63;;;34.45;;
58760;SDS011;44529;47.464;19.014;2022-11-04T14:22:57;55.30;;;35.95;;
58760;SDS011;44529;47.464;19.014;2022-11-04T14:26:05;54.95;;;34.85;;
58760;SDS011;44529;47.464;19.014;2022-11-04T14:29:16;55.97;;;36.92;;
58760;SDS011;44529;47.464;19.014;2022-11-04T14:32:26;55.03;;;36.03;;
58760;SDS011;44529;47.464;19.014;2022-11-04T14:35:33;55.83;;;36.15;;
58760;SDS011;44529;47.464;19.014;2022-11-04T14:38:37;55.20;;;35.50;;
58760;SDS011;44529;47.464;19.014;2022-11-04T14:47:52;59.78;;;36.80;;
58760;SDS011;44529;47.464;19.014;2022-11-04T14:51:23;55.38;;;36.03;;
58760;SDS011;44529;47.464;19.014;2022-11-04T14:54:29;63.08;;;36.35;;
58760;SDS011;44529;47.464;19.014;2022-11-04T14:57:37;53.80;;;36.03;;
58760;SDS011;44529;47.464;19.014;2022-11-04T15:03:49;53.53;;;35.72;;
58760;SDS011;44529;47.464;19.014;2022-11-04T15:07:21;51.17;;;35.13;;
58760;SDS011;44529;47.464;19.014;2022-11-04T15:10:33;52.50;;;33.83;;
58760;SDS011;44529;47.464;19.014;2022-11-04T15:13:35;51.55;;;34.53;;
58760;SDS011;44529;47.464;19.014;2022-11-04T15:16:40;52.15;;;34.20;;
58760;SDS011;44529;47.464;19.014;2022-11-04T15:19:47;52.97;;;33.53;;
58760;SDS011;44529;47.464;19.014;2022-11-04T15:22:52;54.33;;;34.60;;
58760;SDS011;44529;47.464;19.014;2022-11-04T15:25:56;48.05;;;32.65;;
58760;SDS011;44529;47.464;19.014;2022-11-04T15:29:01;49.70;;;32.95;;
58760;SDS011;44529;47.464;19.014;2022-11-04T15:32:14;50.63;;;32.80;;
58760;SDS011;44529;47.464;19.014;2022-11-04T15:35:18;46.15;;;32.38;;
58760;SDS011;44529;47.464;19.014;2022-11-04T15:38:20;51.90;;;33.47;;
58760;SDS011;44529;47.464;19.014;2022-11-04T15:41:25;45.80;;;32.30;;
58760;SDS011;44529;47.464;19.014;2022-11-04T15:44:49;48.92;;;32.70;;
58760;SDS011;44529;47.464;19.014;2022-11-04T15:51:22;47.55;;;31.87;;
58760;SDS011;44529;47.464;19.014;2022-11-04T15:54:28;46.17;;;31.70;;
58760;SDS011;44529;47.464;19.014;2022-11-04T15:57:41;46.03;;;31.00;;
58760;SDS011;44529;47.464;19.014;2022-11-04T16:00:52;44.28;;;30.77;;
58760;SDS011;44529;47.464;19.014;2022-11-04T16:03:56;42.70;;;29.50;;
58760;SDS011;44529;47.464;19.014;2022-11-04T16:07:20;44.78;;;30.83;;
58760;SDS011;44529;47.464;19.014;2022-11-04T16:10:31;48.10;;;30.23;;
58760;SDS011;44529;47.464;19.014;2022-11-04T16:13:35;45.92;;;29.83;;
58760;SDS011;44529;47.464;19.014;2022-11-04T16:16:37;45.83;;;29.75;;
58760;SDS011;44529;47.464;19.014;2022-11-04T16:19:39;42.92;;;28.87;;
58760;SDS011;44529;47.464;19.014;2022-11-04T16:22:52;43.28;;;28.80;;
58760;SDS011;44529;47.464;19.014;2022-11-04T16:25:57;46.90;;;29.15;;
58760;SDS011;44529;47.464;19.014;2022-11-04T16:29:05;42.10;;;29.25;;
58760;SDS011;44529;47.464;19.014;2022-11-04T16:32:27;39.05;;;27.95;;
58760;SDS011;44529;47.464;19.014;2022-11-04T16:35:31;42.83;;;28.15;;
58760;SDS011;44529;47.464;19.014;2022-11-04T16:38:33;43.92;;;28.70;;
58760;SDS011;44529;47.464;19.014;2022-11-04T16:41:39;41.30;;;26.62;;
58760;SDS011;44529;47.464;19.014;2022-11-04T16:44:49;41.75;;;28.90;;
58760;SDS011;44529;47.464;19.014;2022-11-04T16:47:53;42.80;;;27.65;;
58760;SDS011;44529;47.464;19.014;2022-11-04T16:50:55;40.42;;;26.95;;
58760;SDS011;44529;47.464;19.014;2022-11-04T16:53:57;40.95;;;27.08;;
58760;SDS011;44529;47.464;19.014;2022-11-04T16:57:00;37.50;;;26.83;;
58760;SDS011;44529;47.464;19.014;2022-11-04T17:00:04;39.97;;;27.00;;
58760;SDS011;44529;47.464;19.014;2022-11-04T17:03:11;40.97;;;26.83;;
58760;SDS011;44529;47.464;19.014;2022-11-04T17:06:22;39.33;;;26.77;;
58760;SDS011;44529;47.464;19.014;2022-11-04T17:09:26;40.67;;;26.95;;
58760;SDS011;44529;47.464;19.014;2022-11-04T17:12:28;42.22;;;27.08;;
58760;SDS011;44529;47.464;19.014;2022-11-04T17:15:30;36.78;;;25.90;;
58760;SDS011;44529;47.464;19.014;2022-11-04T17:18:33;40.63;;;26.40;;
58760;SDS011;44529;47.464;19.014;2022-11-04T17:21:35;43.13;;;27.00;;
58760;SDS011;44529;47.464;19.014;2022-11-04T17:24:38;42.88;;;27.48;;
58760;SDS011;44529;47.464;19.014;2022-11-04T17:27:40;37.47;;;25.92;;
58760;SDS011;44529;47.464;19.014;2022-11-04T17:30:43;39.92;;;27.15;;
58760;SDS011;44529;47.464;19.014;2022-11-04T17:33:45;40.92;;;27.13;;
58760;SDS011;44529;47.464;19.014;2022-11-04T17:36:47;38.80;;;26.52;;
58760;SDS011;44529;47.464;19.014;2022-11-04T17:39:49;40.17;;;26.92;;
58760;SDS011;44529;47.464;19.014;2022-11-04T17:42:52;39.83;;;26.27;;
58760;SDS011;44529;47.464;19.014;2022-11-04T17:46:14;36.55;;;25.65;;
58760;SDS011;44529;47.464;19.014;2022-11-04T17:49:35;39.15;;;26.10;;
58760;SDS011;44529;47.464;19.014;2022-11-04T17:52:40;37.78;;;25.62;;
58760;SDS011;44529;47.464;19.014;2022-11-04T17:55:43;42.00;;;26.80;;
58760;SDS011;44529;47.464;19.014;2022-11-04T17:58:45;33.45;;;24.33;;
58760;SDS011;44529;47.464;19.014;2022-11-04T18:01:48;37.25;;;25.52;;
58760;SDS011;44529;47.464;19.014;2022-11-04T18:04:51;38.30;;;25.12;;
58760;SDS011;44529;47.464;19.014;2022-11-04T18:07:53;37.92;;;24.52;;
58760;SDS011;44529;47.464;19.014;2022-11-04T18:10:57;38.35;;;24.55;;
58760;SDS011;44529;47.464;19.014;2022-11-04T18:14:00;38.60;;;24.27;;
58760;SDS011;44529;47.464;19.014;2022-11-04T18:17:03;40.25;;;23.50;;
58760;SDS011;44529;47.464;19.014;2022-11-04T18:20:06;35.22;;;24.80;;
58760;SDS011;44529;47.464;19.014;2022-11-04T18:23:15;37.05;;;24.80;;
58760;SDS011;44529;47.464;19.014;2022-11-04T18:26:17;38.22;;;26.02;;
58760;SDS011;44529;47.464;19.014;2022-11-04T18:29:20;40.65;;;26.52;;
58760;SDS011;44529;47.464;19.014;2022-11-04T18:32:22;42.20;;;26.35;;
58760;SDS011;44529;47.464;19.014;2022-11-04T18:35:24;40.08;;;26.62;;
58760;SDS011;44529;47.464;19.014;2022-11-04T18:38:26;38.47;;;27.23;;
58760;SDS011;44529;47.464;19.014;2022-11-04T18:41:29;43.58;;;26.52;;
58760;SDS011;44529;47.464;19.014;2022-11-04T18:44:31;36.30;;;26.08;;
58760;SDS011;44529;47.464;19.014;2022-11-04T18:47:33;37.78;;;26.85;;
58760;SDS011;44529;47.464;19.014;2022-11-04T18:50:35;38.35;;;26.67;;
58760;SDS011;44529;47.464;19.014;2022-11-04T18:53:38;39.60;;;26.48;;
58760;SDS011;44529;47.464;19.014;2022-11-04T18:56:40;42.28;;;27.55;;
58760;SDS011;44529;47.464;19.014;2022-11-04T18:59:42;38.67;;;26.85;;
58760;SDS011;44529;47.464;19.014;2022-11-04T19:02:45;42.00;;;27.13;;
58760;SDS011;44529;47.464;19.014;2022-11-04T19:05:47;38.00;;;25.42;;
58760;SDS011;44529;47.464;19.014;2022-11-04T19:08:50;38.60;;;26.08;;
58760;SDS011;44529;47.464;19.014;2022-11-04T19:11:55;38.15;;;25.55;;
58760;SDS011;44529;47.464;19.014;2022-11-04T19:15:16;35.20;;;26.00;;
58760;SDS011;44529;47.464;19.014;2022-11-04T19:18:19;41.97;;;26.20;;
58760;SDS011;44529;47.464;19.014;2022-11-04T19:21:22;37.78;;;25.45;;
58760;SDS011;44529;47.464;19.014;2022-11-04T19:24:25;37.20;;;25.12;;
58760;SDS011;44529;47.464;19.014;2022-11-04T19:27:29;35.58;;;25.33;;
58760;SDS011;44529;47.464;19.014;2022-11-04T19:30:31;38.35;;;25.15;;
58760;SDS011;44529;47.464;19.014;2022-11-04T19:33:34;31.83;;;25.10;;
58760;SDS011;44529;47.464;19.014;2022-11-04T19:36:37;35.05;;;25.92;;
58760;SDS011;44529;47.464;19.014;2022-11-04T19:39:39;35.97;;;25.80;;
58760;SDS011;44529;47.464;19.014;2022-11-04T19:42:42;38.03;;;26.65;;
58760;SDS011;44529;47.464;19.014;2022-11-04T19:46:03;40.70;;;26.27;;
58760;SDS011;44529;47.464;19.014;2022-11-04T19:49:06;37.63;;;27.17;;
58760;SDS011;44529;47.464;19.014;2022-11-04T19:52:09;38.00;;;26.95;;
58760;SDS011;44529;47.464;19.014;2022-11-04T19:55:12;39.00;;;29.20;;
58760;SDS011;44529;47.464;19.014;2022-11-04T19:58:14;41.28;;;28.60;;
58760;SDS011;44529;47.464;19.014;2022-11-04T20:01:16;37.17;;;27.13;;
58760;SDS011;44529;47.464;19.014;2022-11-04T20:04:19;39.70;;;27.52;;